createdAt,value
2022-12-03T00:01:01.299Z,3.64
2022-12-03T00:04:02.974Z,3.43
2022-12-03T00:07:04.533Z,3.55
2022-12-03T00:10:06.943Z,3.49
2022-12-03T00:13:08.282Z,3.53
2022-12-03T00:16:09.803Z,3.63
2022-12-03T00:19:11.409Z,3.42
2022-12-03T00:22:13.000Z,3.35
2022-12-03T00:25:14.631Z,3.47
2022-12-03T00:28:16.051Z,3.53
2022-12-03T00:31:17.618Z,3.50
2022-12-03T00:34:19.139Z,3.62
2022-12-03T00:37:20.619Z,3.55
2022-12-03T00:40:22.027Z,3.31
2022-12-03T00:43:23.464Z,3.21
2022-12-03T00:46:25.554Z,3.41
2022-12-03T00:49:27.209Z,3.54
2022-12-03T00:52:28.607Z,3.15
2022-12-03T00:55:30.026Z,2.97
2022-12-03T00:58:31.552Z,2.94
2022-12-03T01:01:33.018Z,3.06
2022-12-03T01:04:34.817Z,3.03
2022-12-03T01:07:36.426Z,3.19
2022-12-03T01:10:37.902Z,3.41
2022-12-03T01:13:39.345Z,3.48
2022-12-03T01:16:41.364Z,3.44
2022-12-03T01:19:48.029Z,3.28
2022-12-03T01:22:49.947Z,3.48
2022-12-03T01:25:51.389Z,3.30
2022-12-03T01:28:52.836Z,3.29
2022-12-03T01:32:13.393Z,3.16
2022-12-03T01:35:14.864Z,3.45
2022-12-03T01:38:16.289Z,3.36
2022-12-03T01:41:18.870Z,2.87
2022-12-03T01:44:27.187Z,3.01
2022-12-03T01:47:35.338Z,3.21
2022-12-03T01:50:38.423Z,3.45
2022-12-03T01:53:40.143Z,3.31
2022-12-03T01:56:41.604Z,3.33
2022-12-03T01:59:43.047Z,3.13
2022-12-03T02:02:45.301Z,3.18
2022-12-03T02:05:46.795Z,3.19
2022-12-03T02:08:49.031Z,3.44
2022-12-03T02:11:50.770Z,3.33
2022-12-03T02:14:53.665Z,3.15
2022-12-03T02:17:55.807Z,2.76
2022-12-03T02:21:21.493Z,3.02
2022-12-03T02:24:33.084Z,3.36
2022-12-03T02:27:34.637Z,2.94
2022-12-03T02:30:36.937Z,3.08
2022-12-03T02:33:38.406Z,3.29
2022-12-03T02:36:39.976Z,2.95
2022-12-03T02:39:46.866Z,2.92
2022-12-03T02:42:50.948Z,3.19
2022-12-03T02:45:56.386Z,3.26
2022-12-03T02:48:58.834Z,3.20
2022-12-03T02:52:00.265Z,3.35
2022-12-03T02:55:04.374Z,3.33
2022-12-03T02:58:06.615Z,3.26
2022-12-03T03:01:09.206Z,3.07
2022-12-03T03:04:10.857Z,2.99
2022-12-03T03:07:12.726Z,3.21
2022-12-03T03:10:16.344Z,3.17
2022-12-03T03:13:19.075Z,3.32
2022-12-03T03:16:20.826Z,3.51
2022-12-03T03:19:26.095Z,2.76
2022-12-03T03:22:35.415Z,2.94
2022-12-03T03:25:38.288Z,2.95
2022-12-03T03:28:46.610Z,2.90
2022-12-03T03:31:48.423Z,2.92
2022-12-03T03:34:50.190Z,3.24
2022-12-03T03:37:53.635Z,2.86
2022-12-03T03:40:57.257Z,2.74
2022-12-03T03:43:58.941Z,2.67
2022-12-03T03:47:00.597Z,2.87
2022-12-03T03:50:02.755Z,2.94
2022-12-03T03:53:05.035Z,2.83
2022-12-03T03:56:07.471Z,2.85
2022-12-03T03:59:09.020Z,3.18
2022-12-03T04:02:19.583Z,3.00
2022-12-03T04:05:23.177Z,2.68
2022-12-03T04:08:24.723Z,2.49
2022-12-03T04:11:44.902Z,2.82
2022-12-03T04:14:46.411Z,2.88
2022-12-03T04:18:07.829Z,2.97
2022-12-03T04:21:39.674Z,2.99
2022-12-03T04:24:41.111Z,2.73
2022-12-03T04:28:01.605Z,2.86
2022-12-03T04:31:25.657Z,2.91
2022-12-03T04:34:45.801Z,2.66
2022-12-03T04:37:47.259Z,2.64
2022-12-03T04:41:00.766Z,3.01
2022-12-03T04:44:33.174Z,3.09
2022-12-03T04:47:39.782Z,3.17
2022-12-03T04:50:41.616Z,2.89
2022-12-03T04:53:46.182Z,2.80
2022-12-03T04:56:47.907Z,2.59
2022-12-03T04:59:49.377Z,2.53
2022-12-03T05:02:51.013Z,2.21
2022-12-03T05:05:52.509Z,2.47
2022-12-03T05:08:53.986Z,2.76
2022-12-03T05:11:55.440Z,2.54
2022-12-03T05:14:56.993Z,2.46
2022-12-03T05:17:58.467Z,2.42
2022-12-03T05:20:59.882Z,2.33
2022-12-03T05:24:01.692Z,2.43
2022-12-03T05:27:03.279Z,2.37
2022-12-03T05:30:05.369Z,2.44
2022-12-03T05:33:06.792Z,2.32
2022-12-03T05:36:09.053Z,2.16
2022-12-03T05:39:10.516Z,2.51
2022-12-03T05:42:30.565Z,2.61
2022-12-03T05:45:37.637Z,2.57
2022-12-03T05:48:39.053Z,2.58
2022-12-03T05:51:40.491Z,2.41
2022-12-03T05:54:42.070Z,2.72
2022-12-03T05:57:43.743Z,2.70
2022-12-03T06:00:45.193Z,2.66
2022-12-03T06:03:46.734Z,2.90
2022-12-03T06:06:48.269Z,2.94
2022-12-03T06:09:49.695Z,2.61
2022-12-03T06:12:51.521Z,2.54
2022-12-03T06:15:53.012Z,2.04
2022-12-03T06:18:54.498Z,2.06
2022-12-03T06:21:55.959Z,2.03
2022-12-03T06:25:02.055Z,2.34
2022-12-03T06:28:07.359Z,2.56
2022-12-03T06:31:08.792Z,2.36
2022-12-03T06:34:10.318Z,2.51
2022-12-03T06:37:11.731Z,2.25
2022-12-03T06:40:13.586Z,2.39
2022-12-03T06:43:15.303Z,2.65
2022-12-03T06:46:16.761Z,2.77
2022-12-03T06:49:18.262Z,2.57
2022-12-03T06:52:19.794Z,2.40
2022-12-03T06:55:21.205Z,1.78
2022-12-03T06:58:22.639Z,1.44
2022-12-03T07:01:24.635Z,1.64
2022-12-03T07:04:26.120Z,1.78
2022-12-03T07:07:27.626Z,1.52
2022-12-03T07:10:29.215Z,1.76
2022-12-03T07:13:30.886Z,2.33
2022-12-03T07:16:32.559Z,2.07
2022-12-03T07:19:34.056Z,2.06
2022-12-03T07:22:35.586Z,2.49
2022-12-03T07:25:37.375Z,2.53
2022-12-03T07:28:38.786Z,2.46
2022-12-03T07:31:40.296Z,2.46
2022-12-03T07:34:41.846Z,2.46
2022-12-03T07:37:43.267Z,2.69
2022-12-03T07:40:45.171Z,2.64
2022-12-03T07:43:46.656Z,2.64
2022-12-03T07:46:48.229Z,2.60
2022-12-03T07:49:49.717Z,2.63
2022-12-03T07:52:51.143Z,2.20
2022-12-03T07:55:53.008Z,2.51
2022-12-03T07:58:54.547Z,2.68
2022-12-03T08:01:56.120Z,2.80
2022-12-03T08:04:57.641Z,2.70
2022-12-03T08:07:59.151Z,2.40
2022-12-03T08:11:01.937Z,2.36
2022-12-03T08:14:18.605Z,2.36
2022-12-03T08:17:21.613Z,2.38
2022-12-03T08:20:31.522Z,2.35
2022-12-03T08:23:34.521Z,2.15
2022-12-03T08:26:36.074Z,2.18
2022-12-03T08:29:37.490Z,2.37
2022-12-03T08:32:38.892Z,2.65
2022-12-03T08:35:44.253Z,2.81
2022-12-03T08:38:50.917Z,2.93
2022-12-03T08:42:14.977Z,2.79
2022-12-03T08:45:39.819Z,2.96
2022-12-03T08:48:47.081Z,2.93
2022-12-03T08:51:55.979Z,2.99
2022-12-03T08:54:57.658Z,2.84
2022-12-03T08:57:59.533Z,2.68
2022-12-03T09:01:07.106Z,2.94
2022-12-03T09:04:24.070Z,2.65
2022-12-03T09:07:25.610Z,2.89
2022-12-03T09:10:27.109Z,2.85
2022-12-03T09:13:29.056Z,2.67
2022-12-03T09:16:30.677Z,2.89
2022-12-03T09:19:32.435Z,2.99
2022-12-03T09:22:34.067Z,2.58
2022-12-03T09:25:35.524Z,2.46
2022-12-03T09:28:36.950Z,2.12
2022-12-03T09:31:38.456Z,2.39
2022-12-03T09:34:40.003Z,2.17
2022-12-03T09:37:41.419Z,2.59
2022-12-03T09:40:42.975Z,2.97
2022-12-03T09:44:03.500Z,2.78
2022-12-03T09:47:06.428Z,2.78
2022-12-03T09:50:13.646Z,2.69
2022-12-03T09:53:18.454Z,2.56
2022-12-03T09:56:22.724Z,2.75
2022-12-03T09:59:27.374Z,3.06
2022-12-03T10:02:30.554Z,2.57
2022-12-03T10:05:33.216Z,2.15
2022-12-03T10:08:34.681Z,1.74
2022-12-03T10:11:36.211Z,1.94
2022-12-03T10:14:37.643Z,2.13
2022-12-03T10:17:39.229Z,2.45
2022-12-03T10:20:40.650Z,2.28
2022-12-03T10:23:42.090Z,2.22
2022-12-03T10:26:45.729Z,2.41
2022-12-03T10:29:58.341Z,2.34
2022-12-03T10:33:14.347Z,2.74
2022-12-03T10:36:23.420Z,2.28
2022-12-03T10:39:24.880Z,2.34
2022-12-03T10:42:29.295Z,2.48
2022-12-03T10:45:30.756Z,2.40
2022-12-03T10:48:32.241Z,2.11
2022-12-03T10:51:33.919Z,2.42
2022-12-03T10:54:35.702Z,2.05
2022-12-03T10:57:40.002Z,1.95
2022-12-03T11:00:45.256Z,2.47
2022-12-03T11:03:47.765Z,2.09
2022-12-03T11:06:50.726Z,2.48
2022-12-03T11:09:58.821Z,2.76
2022-12-03T11:13:34.052Z,3.07
2022-12-03T11:16:41.646Z,2.98
2022-12-03T11:19:46.520Z,3.06
2022-12-03T11:22:49.692Z,3.17
2022-12-03T11:25:51.116Z,3.11
2022-12-03T11:28:55.178Z,3.31
2022-12-03T11:31:56.590Z,3.31
2022-12-03T11:34:58.189Z,3.05
2022-12-03T11:38:37.993Z,2.73
2022-12-03T11:41:39.470Z,2.78
2022-12-03T11:44:40.930Z,2.72
2022-12-03T11:47:46.914Z,3.03
2022-12-03T11:50:53.015Z,3.08
2022-12-03T11:53:57.652Z,3.06
2022-12-03T11:56:59.109Z,2.78
2022-12-03T12:00:22.259Z,3.02
2022-12-03T12:03:28.640Z,2.89
2022-12-03T12:06:42.496Z,3.03
2022-12-03T12:09:57.253Z,2.88
2022-12-03T12:12:58.930Z,3.31
2022-12-03T12:16:05.325Z,3.42
2022-12-03T12:19:33.036Z,3.27
2022-12-03T12:22:34.558Z,3.34
2022-12-03T12:25:39.082Z,3.38
2022-12-03T12:28:40.594Z,3.37
2022-12-03T12:31:42.158Z,2.98
2022-12-03T12:34:46.389Z,3.29
2022-12-03T12:37:55.009Z,3.24
2022-12-03T12:41:07.457Z,3.47
2022-12-03T12:44:13.977Z,3.58
2022-12-03T12:47:15.409Z,3.52
2022-12-03T12:50:18.388Z,3.20
2022-12-03T12:53:26.183Z,3.31
2022-12-03T12:56:30.887Z,3.34
2022-12-03T12:59:32.577Z,3.49
2022-12-03T13:02:43.129Z,3.57
2022-12-03T13:05:46.861Z,3.80
2022-12-03T13:08:50.256Z,3.63
2022-12-03T13:11:53.697Z,3.85
2022-12-03T13:14:58.285Z,3.69
2022-12-03T13:17:59.705Z,3.76
2022-12-03T13:21:24.546Z,3.76
2022-12-03T13:24:39.662Z,3.55
2022-12-03T13:27:41.058Z,3.83
2022-12-03T13:30:42.594Z,3.91
2022-12-03T13:33:44.030Z,3.81
2022-12-03T13:36:50.709Z,3.85
2022-12-03T13:39:57.803Z,3.78
2022-12-03T13:42:59.408Z,3.51
2022-12-03T13:46:01.255Z,3.78
2022-12-03T13:49:03.184Z,3.63
2022-12-03T13:52:12.738Z,3.16
2022-12-03T13:55:31.481Z,3.31
2022-12-03T13:58:32.879Z,3.75
2022-12-03T14:01:34.571Z,3.86
2022-12-03T14:04:36.142Z,3.95
2022-12-03T14:07:38.760Z,4.01
2022-12-03T14:10:40.357Z,4.12
2022-12-03T14:13:41.799Z,3.94
2022-12-03T14:16:43.305Z,4.11
2022-12-03T14:19:45.030Z,3.57
2022-12-03T14:22:46.475Z,3.73
2022-12-03T14:25:48.002Z,3.87
2022-12-03T14:28:49.418Z,3.73
2022-12-03T14:31:50.888Z,3.88
2022-12-03T14:34:52.395Z,4.13
2022-12-03T14:37:53.810Z,4.20
2022-12-03T14:40:55.220Z,4.12
2022-12-03T14:43:56.621Z,3.88
2022-12-03T14:46:58.078Z,4.05
2022-12-03T14:49:59.511Z,3.80
2022-12-03T14:53:00.926Z,4.01
2022-12-03T14:56:02.322Z,3.98
2022-12-03T14:59:03.774Z,3.86
2022-12-03T15:02:05.699Z,3.95
2022-12-03T15:05:07.500Z,3.51
2022-12-03T15:08:09.662Z,3.42
2022-12-03T15:11:11.771Z,3.73
2022-12-03T15:14:16.615Z,3.74
2022-12-03T15:17:25.378Z,3.64
2022-12-03T15:20:31.367Z,3.65
2022-12-03T15:23:32.904Z,3.55
2022-12-03T15:26:34.351Z,3.66
2022-12-03T15:29:35.892Z,3.69
2022-12-03T15:32:37.317Z,3.67
2022-12-03T15:35:41.186Z,3.54
2022-12-03T15:38:42.615Z,3.43
2022-12-03T15:41:44.081Z,3.40
2022-12-03T15:44:45.501Z,3.42
2022-12-03T15:47:46.942Z,3.41
2022-12-03T15:50:48.361Z,3.35
2022-12-03T15:53:49.923Z,3.50
2022-12-03T15:56:56.865Z,3.57
2022-12-03T15:59:58.995Z,3.66
2022-12-03T16:03:00.437Z,3.63
2022-12-03T16:06:19.533Z,3.36
2022-12-03T16:09:26.667Z,3.23
2022-12-03T16:12:29.059Z,3.24
2022-12-03T16:15:30.536Z,3.19
2022-12-03T16:18:32.154Z,3.40
2022-12-03T16:21:34.884Z,3.50
2022-12-03T16:24:36.329Z,3.48
2022-12-03T16:27:38.194Z,3.57
2022-12-03T16:30:39.803Z,3.57
2022-12-03T16:33:41.306Z,3.51
2022-12-03T16:36:42.777Z,3.31
2022-12-03T16:39:44.292Z,3.29
2022-12-03T16:42:45.803Z,3.19
2022-12-03T16:45:56.423Z,3.18
2022-12-03T16:48:58.654Z,3.32
2022-12-03T16:52:00.078Z,3.34
2022-12-03T16:55:01.794Z,3.16
2022-12-03T16:58:03.293Z,3.45
2022-12-03T17:01:05.144Z,3.57
2022-12-03T17:04:06.590Z,3.61
2022-12-03T17:07:08.022Z,3.55
2022-12-03T17:10:10.092Z,3.67
2022-12-03T17:13:11.750Z,3.66
2022-12-03T17:16:13.249Z,3.64
2022-12-03T17:19:15.109Z,3.68
2022-12-03T17:22:16.583Z,3.53
2022-12-03T17:25:18.087Z,3.33
2022-12-03T17:28:19.529Z,3.51
2022-12-03T17:31:21.058Z,3.61
2022-12-03T17:34:22.509Z,3.52
2022-12-03T17:37:23.937Z,3.49
2022-12-03T17:40:25.390Z,3.48
2022-12-03T17:43:26.835Z,3.43
2022-12-03T17:46:28.641Z,3.60
2022-12-03T17:49:31.873Z,3.69
2022-12-03T17:52:33.455Z,3.54
2022-12-03T17:55:41.277Z,3.54
2022-12-03T17:58:46.894Z,3.68
2022-12-03T18:01:50.591Z,3.63
2022-12-03T18:04:52.049Z,3.67
2022-12-03T18:07:53.612Z,3.56
2022-12-03T18:10:55.307Z,3.61
2022-12-03T18:13:56.787Z,3.64
2022-12-03T18:16:58.198Z,3.72
2022-12-03T18:20:00.416Z,3.73
2022-12-03T18:23:02.190Z,3.76
2022-12-03T18:26:04.436Z,3.79
2022-12-03T18:29:06.197Z,3.58
2022-12-03T18:32:27.182Z,3.67
2022-12-03T18:35:30.176Z,3.61
2022-12-03T18:38:33.689Z,3.76
2022-12-03T18:41:35.713Z,3.82
2022-12-03T18:44:37.250Z,3.61
2022-12-03T18:47:38.993Z,3.69
2022-12-03T18:50:41.043Z,3.78
2022-12-03T18:53:43.277Z,3.61
2022-12-03T18:56:44.697Z,3.49
2022-12-03T18:59:46.422Z,3.53
2022-12-03T19:03:02.980Z,3.54
2022-12-03T19:06:05.406Z,3.41
2022-12-03T19:09:07.202Z,3.31
2022-12-03T19:12:14.622Z,3.13
2022-12-03T19:15:16.998Z,3.34
2022-12-03T19:18:18.441Z,3.33
2022-12-03T19:21:19.925Z,3.40
2022-12-03T19:24:25.499Z,3.60
2022-12-03T19:27:29.746Z,3.62
2022-12-03T19:30:31.260Z,3.59
2022-12-03T19:33:33.987Z,3.56
2022-12-03T19:36:35.416Z,3.31
2022-12-03T19:39:36.937Z,3.48
2022-12-03T19:42:39.064Z,3.52
2022-12-03T19:45:41.250Z,3.46
2022-12-03T19:48:43.066Z,3.19
2022-12-03T19:51:44.494Z,3.23
2022-12-03T19:54:45.947Z,3.29
2022-12-03T19:57:47.645Z,3.29
2022-12-03T20:00:49.120Z,3.07
2022-12-03T20:03:53.169Z,3.14
2022-12-03T20:06:54.782Z,3.27
2022-12-03T20:09:56.599Z,3.16
2022-12-03T20:12:58.295Z,3.32
2022-12-03T20:16:07.234Z,3.20
2022-12-03T20:19:12.426Z,3.23
2022-12-03T20:22:13.845Z,3.03
2022-12-03T20:25:15.396Z,3.00
2022-12-03T20:28:16.934Z,2.99
2022-12-03T20:31:20.728Z,2.88
2022-12-03T20:34:22.233Z,2.86
2022-12-03T20:37:23.668Z,2.80
2022-12-03T20:40:25.244Z,2.73
2022-12-03T20:43:26.656Z,2.79
2022-12-03T20:46:30.248Z,2.83
2022-12-03T20:49:31.791Z,2.94
2022-12-03T20:52:33.242Z,3.08
2022-12-03T20:55:34.728Z,2.99
2022-12-03T20:58:36.543Z,2.84
2022-12-03T21:01:38.888Z,2.53
2022-12-03T21:04:40.322Z,2.67
2022-12-03T21:07:41.865Z,2.71
2022-12-03T21:10:46.458Z,2.86
2022-12-03T21:13:48.017Z,2.74
2022-12-03T21:17:08.032Z,2.60
2022-12-03T21:20:10.808Z,2.74
2022-12-03T21:23:12.800Z,2.67
2022-12-03T21:26:17.520Z,2.79
2022-12-03T21:29:19.056Z,2.78
2022-12-03T21:32:20.464Z,2.71
2022-12-03T21:35:21.933Z,2.84
2022-12-03T21:38:23.850Z,2.81
2022-12-03T21:41:25.703Z,2.98
2022-12-03T21:44:27.432Z,2.92
2022-12-03T21:47:33.445Z,2.55
2022-12-03T21:50:38.279Z,2.54
2022-12-03T21:53:43.498Z,2.55
2022-12-03T21:56:45.168Z,2.61
2022-12-03T21:59:46.636Z,2.32
2022-12-03T22:02:48.107Z,1.71
2022-12-03T22:05:50.078Z,1.67
2022-12-03T22:08:51.510Z,1.76
2022-12-03T22:11:55.322Z,1.34
2022-12-03T22:14:57.296Z,1.87
2022-12-03T22:17:58.809Z,2.17
2022-12-03T22:21:08.598Z,2.26
2022-12-03T22:24:10.409Z,2.10
2022-12-03T22:27:12.922Z,2.10
2022-12-03T22:30:14.538Z,2.21
2022-12-03T22:33:16.080Z,1.86
2022-12-03T22:36:21.401Z,2.19
2022-12-03T22:39:23.407Z,2.13
2022-12-03T22:42:24.835Z,1.93
2022-12-03T22:45:26.290Z,1.94
2022-12-03T22:48:28.223Z,2.04
2022-12-03T22:51:30.239Z,1.95
2022-12-03T22:54:31.750Z,1.76
2022-12-03T22:57:33.240Z,1.94
2022-12-03T23:00:38.734Z,2.26
2022-12-03T23:03:40.249Z,2.62
2022-12-03T23:06:43.419Z,2.69
2022-12-03T23:09:44.851Z,2.49
2022-12-03T23:12:46.328Z,2.08
2022-12-03T23:15:50.805Z,2.33
2022-12-03T23:18:52.350Z,2.39
2022-12-03T23:21:53.824Z,2.30
2022-12-03T23:24:55.291Z,2.45
2022-12-03T23:27:56.756Z,2.59
2022-12-03T23:30:58.646Z,2.54
2022-12-03T23:34:00.482Z,2.34
2022-12-03T23:37:01.971Z,2.37
2022-12-03T23:40:03.926Z,2.02
2022-12-03T23:43:05.352Z,2.07
2022-12-03T23:46:12.674Z,2.26
2022-12-03T23:49:14.164Z,2.47
2022-12-03T23:52:15.586Z,2.53
2022-12-03T23:55:17.280Z,2.38
2022-12-03T23:58:18.733Z,2.34
